sensor_id;sensor_type;location;lat;lon;timestamp;P1;durP1;ratioP1;P2;durP2;ratioP2
2305;SDS011;1161;51.922;8.896;2022-07-17T00:01:55;4.30;;;2.83;;
2305;SDS011;1161;51.922;8.896;2022-07-17T00:04:21;3.40;;;2.10;;
2305;SDS011;1161;51.922;8.896;2022-07-17T00:06:49;3.90;;;2.87;;
2305;SDS011;1161;51.922;8.896;2022-07-17T00:09:15;11.63;;;4.33;;
2305;SDS011;1161;51.922;8.896;2022-07-17T00:11:42;3.53;;;2.77;;
2305;SDS011;1161;51.922;8.896;2022-07-17T00:14:09;11.07;;;3.43;;
2305;SDS011;1161;51.922;8.896;2022-07-17T00:16:37;6.67;;;2.60;;
2305;SDS011;1161;51.922;8.896;2022-07-17T00:19:03;4.60;;;2.00;;
2305;SDS011;1161;51.922;8.896;2022-07-17T00:21:32;4.33;;;1.93;;
2305;SDS011;1161;51.922;8.896;2022-07-17T00:23:59;2.07;;;1.90;;
2305;SDS011;1161;51.922;8.896;2022-07-17T00:26:25;2.53;;;2.33;;
2305;SDS011;1161;51.922;8.896;2022-07-17T00:28:52;4.27;;;2.70;;
2305;SDS011;1161;51.922;8.896;2022-07-17T00:31:18;3.67;;;2.77;;
2305;SDS011;1161;51.922;8.896;2022-07-17T00:33:46;5.90;;;2.37;;
2305;SDS011;1161;51.922;8.896;2022-07-17T00:36:13;2.70;;;2.50;;
2305;SDS011;1161;51.922;8.896;2022-07-17T00:38:39;7.93;;;2.47;;
2305;SDS011;1161;51.922;8.896;2022-07-17T00:41:06;3.50;;;3.20;;
2305;SDS011;1161;51.922;8.896;2022-07-17T00:43:34;6.20;;;3.10;;
2305;SDS011;1161;51.922;8.896;2022-07-17T00:46:01;2.70;;;2.50;;
2305;SDS011;1161;51.922;8.896;2022-07-17T00:48:29;3.03;;;2.87;;
2305;SDS011;1161;51.922;8.896;2022-07-17T00:50:58;6.03;;;2.53;;
2305;SDS011;1161;51.922;8.896;2022-07-17T00:53:25;3.03;;;2.83;;
2305;SDS011;1161;51.922;8.896;2022-07-17T00:55:52;3.77;;;2.70;;
2305;SDS011;1161;51.922;8.896;2022-07-17T00:58:19;2.23;;;1.83;;
2305;SDS011;1161;51.922;8.896;2022-07-17T01:00:48;6.60;;;2.50;;
2305;SDS011;1161;51.922;8.896;2022-07-17T01:03:16;5.70;;;2.30;;
2305;SDS011;1161;51.922;8.896;2022-07-17T01:05:43;2.00;;;1.90;;
2305;SDS011;1161;51.922;8.896;2022-07-17T01:08:11;2.87;;;2.27;;
2305;SDS011;1161;51.922;8.896;2022-07-17T01:10:38;2.63;;;1.80;;
2305;SDS011;1161;51.922;8.896;2022-07-17T01:13:05;3.40;;;2.03;;
2305;SDS011;1161;51.922;8.896;2022-07-17T01:15:32;5.60;;;2.17;;
2305;SDS011;1161;51.922;8.896;2022-07-17T01:17:59;1.90;;;1.80;;
2305;SDS011;1161;51.922;8.896;2022-07-17T01:20:30;2.80;;;2.47;;
2305;SDS011;1161;51.922;8.896;2022-07-17T01:22:58;1.73;;;1.63;;
2305;SDS011;1161;51.922;8.896;2022-07-17T01:25:25;1.97;;;1.87;;
2305;SDS011;1161;51.922;8.896;2022-07-17T01:27:51;4.27;;;2.20;;
2305;SDS011;1161;51.922;8.896;2022-07-17T01:30:18;4.40;;;2.77;;
2305;SDS011;1161;51.922;8.896;2022-07-17T01:32:45;4.77;;;1.60;;
2305;SDS011;1161;51.922;8.896;2022-07-17T01:35:12;4.10;;;2.03;;
2305;SDS011;1161;51.922;8.896;2022-07-17T01:37:41;2.30;;;2.10;;
2305;SDS011;1161;51.922;8.896;2022-07-17T01:40:11;4.97;;;1.67;;
2305;SDS011;1161;51.922;8.896;2022-07-17T01:42:39;2.10;;;1.90;;
2305;SDS011;1161;51.922;8.896;2022-07-17T01:45:08;4.47;;;1.57;;
2305;SDS011;1161;51.922;8.896;2022-07-17T01:47:35;9.07;;;2.50;;
2305;SDS011;1161;51.922;8.896;2022-07-17T01:50:02;3.77;;;2.00;;
2305;SDS011;1161;51.922;8.896;2022-07-17T01:52:30;1.90;;;1.80;;
2305;SDS011;1161;51.922;8.896;2022-07-17T01:54:57;4.10;;;2.17;;
2305;SDS011;1161;51.922;8.896;2022-07-17T01:57:25;2.47;;;2.27;;
2305;SDS011;1161;51.922;8.896;2022-07-17T01:59:51;5.40;;;2.27;;
2305;SDS011;1161;51.922;8.896;2022-07-17T02:02:18;5.20;;;2.57;;
2305;SDS011;1161;51.922;8.896;2022-07-17T02:04:45;5.40;;;3.47;;
2305;SDS011;1161;51.922;8.896;2022-07-17T02:07:12;7.70;;;2.70;;
2305;SDS011;1161;51.922;8.896;2022-07-17T02:09:39;2.63;;;1.40;;
2305;SDS011;1161;51.922;8.896;2022-07-17T02:12:06;4.33;;;2.20;;
2305;SDS011;1161;51.922;8.896;2022-07-17T02:14:34;3.40;;;2.40;;
2305;SDS011;1161;51.922;8.896;2022-07-17T02:17:01;6.63;;;3.13;;
2305;SDS011;1161;51.922;8.896;2022-07-17T02:19:29;4.77;;;1.63;;
2305;SDS011;1161;51.922;8.896;2022-07-17T02:21:56;2.70;;;2.47;;
2305;SDS011;1161;51.922;8.896;2022-07-17T02:24:22;6.37;;;1.80;;
2305;SDS011;1161;51.922;8.896;2022-07-17T02:26:49;1.83;;;1.73;;
2305;SDS011;1161;51.922;8.896;2022-07-17T02:29:16;4.47;;;1.80;;
2305;SDS011;1161;51.922;8.896;2022-07-17T02:31:44;5.43;;;2.50;;
2305;SDS011;1161;51.922;8.896;2022-07-17T02:34:11;2.40;;;2.20;;
2305;SDS011;1161;51.922;8.896;2022-07-17T02:36:38;3.57;;;1.93;;
2305;SDS011;1161;51.922;8.896;2022-07-17T02:39:05;4.03;;;2.57;;
2305;SDS011;1161;51.922;8.896;2022-07-17T02:41:32;2.77;;;2.57;;
2305;SDS011;1161;51.922;8.896;2022-07-17T02:43:58;1.90;;;1.80;;
2305;SDS011;1161;51.922;8.896;2022-07-17T02:46:25;6.00;;;2.30;;
2305;SDS011;1161;51.922;8.896;2022-07-17T02:48:53;3.73;;;1.80;;
2305;SDS011;1161;51.922;8.896;2022-07-17T02:51:20;12.70;;;2.93;;
2305;SDS011;1161;51.922;8.896;2022-07-17T02:53:47;4.73;;;2.53;;
2305;SDS011;1161;51.922;8.896;2022-07-17T02:56:14;5.77;;;1.80;;
2305;SDS011;1161;51.922;8.896;2022-07-17T02:58:40;2.67;;;2.43;;
2305;SDS011;1161;51.922;8.896;2022-07-17T03:01:07;3.70;;;2.13;;
2305;SDS011;1161;51.922;8.896;2022-07-17T03:03:33;2.07;;;1.90;;
2305;SDS011;1161;51.922;8.896;2022-07-17T03:06:02;5.23;;;2.03;;
2305;SDS011;1161;51.922;8.896;2022-07-17T03:08:29;3.13;;;2.50;;
2305;SDS011;1161;51.922;8.896;2022-07-17T03:10:55;4.10;;;2.50;;
2305;SDS011;1161;51.922;8.896;2022-07-17T03:13:22;2.83;;;2.60;;
2305;SDS011;1161;51.922;8.896;2022-07-17T03:15:49;2.07;;;1.97;;
2305;SDS011;1161;51.922;8.896;2022-07-17T03:18:16;7.90;;;2.87;;
2305;SDS011;1161;51.922;8.896;2022-07-17T03:20:42;2.20;;;2.00;;
2305;SDS011;1161;51.922;8.896;2022-07-17T03:23:11;4.90;;;1.73;;
2305;SDS011;1161;51.922;8.896;2022-07-17T03:25:38;3.50;;;2.53;;
2305;SDS011;1161;51.922;8.896;2022-07-17T03:28:05;3.03;;;2.00;;
2305;SDS011;1161;51.922;8.896;2022-07-17T03:30:32;2.30;;;2.00;;
2305;SDS011;1161;51.922;8.896;2022-07-17T03:32:59;11.23;;;3.00;;
2305;SDS011;1161;51.922;8.896;2022-07-17T03:35:26;7.87;;;2.53;;
2305;SDS011;1161;51.922;8.896;2022-07-17T03:37:53;5.90;;;2.33;;
2305;SDS011;1161;51.922;8.896;2022-07-17T03:40:21;3.90;;;2.77;;
2305;SDS011;1161;51.922;8.896;2022-07-17T03:42:48;2.43;;;2.23;;
2305;SDS011;1161;51.922;8.896;2022-07-17T03:45:16;2.00;;;1.90;;
2305;SDS011;1161;51.922;8.896;2022-07-17T03:47:43;7.87;;;2.70;;
2305;SDS011;1161;51.922;8.896;2022-07-17T03:50:10;2.53;;;2.27;;
2305;SDS011;1161;51.922;8.896;2022-07-17T03:52:37;2.10;;;2.00;;
2305;SDS011;1161;51.922;8.896;2022-07-17T03:55:04;2.87;;;2.23;;
2305;SDS011;1161;51.922;8.896;2022-07-17T03:57:34;4.77;;;2.00;;
2305;SDS011;1161;51.922;8.896;2022-07-17T04:00:01;3.20;;;2.87;;
2305;SDS011;1161;51.922;8.896;2022-07-17T04:02:29;3.00;;;2.80;;
2305;SDS011;1161;51.922;8.896;2022-07-17T04:04:56;2.50;;;2.37;;
2305;SDS011;1161;51.922;8.896;2022-07-17T04:07:23;10.67;;;2.47;;
2305;SDS011;1161;51.922;8.896;2022-07-17T04:09:55;2.90;;;2.70;;
2305;SDS011;1161;51.922;8.896;2022-07-17T04:12:22;4.77;;;2.73;;
2305;SDS011;1161;51.922;8.896;2022-07-17T04:14:52;3.03;;;2.83;;
2305;SDS011;1161;51.922;8.896;2022-07-17T04:17:19;2.47;;;2.37;;
2305;SDS011;1161;51.922;8.896;2022-07-17T04:19:46;3.70;;;2.83;;
2305;SDS011;1161;51.922;8.896;2022-07-17T04:22:14;2.77;;;2.60;;
2305;SDS011;1161;51.922;8.896;2022-07-17T04:24:43;3.70;;;2.50;;
2305;SDS011;1161;51.922;8.896;2022-07-17T04:27:11;7.53;;;3.13;;
2305;SDS011;1161;51.922;8.896;2022-07-17T04:29:39;2.43;;;2.20;;
2305;SDS011;1161;51.922;8.896;2022-07-17T04:32:07;6.30;;;2.90;;
2305;SDS011;1161;51.922;8.896;2022-07-17T04:34:35;6.20;;;3.03;;
2305;SDS011;1161;51.922;8.896;2022-07-17T04:37:03;6.20;;;2.53;;
2305;SDS011;1161;51.922;8.896;2022-07-17T04:39:31;3.27;;;2.97;;
2305;SDS011;1161;51.922;8.896;2022-07-17T04:41:58;5.50;;;3.37;;
2305;SDS011;1161;51.922;8.896;2022-07-17T04:44:26;5.90;;;2.70;;
2305;SDS011;1161;51.922;8.896;2022-07-17T04:46:55;6.83;;;4.50;;
2305;SDS011;1161;51.922;8.896;2022-07-17T04:49:23;11.43;;;4.63;;
2305;SDS011;1161;51.922;8.896;2022-07-17T04:51:50;3.63;;;3.10;;
2305;SDS011;1161;51.922;8.896;2022-07-17T04:54:17;4.47;;;2.90;;
2305;SDS011;1161;51.922;8.896;2022-07-17T04:56:44;8.33;;;3.60;;
2305;SDS011;1161;51.922;8.896;2022-07-17T04:59:11;9.43;;;3.60;;
2305;SDS011;1161;51.922;8.896;2022-07-17T05:01:38;6.47;;;3.27;;
2305;SDS011;1161;51.922;8.896;2022-07-17T05:04:05;7.13;;;2.53;;
2305;SDS011;1161;51.922;8.896;2022-07-17T05:06:33;6.60;;;2.77;;
2305;SDS011;1161;51.922;8.896;2022-07-17T05:09:00;6.20;;;2.67;;
2305;SDS011;1161;51.922;8.896;2022-07-17T05:11:28;5.40;;;3.60;;
2305;SDS011;1161;51.922;8.896;2022-07-17T05:13:56;4.30;;;2.80;;
2305;SDS011;1161;51.922;8.896;2022-07-17T05:16:24;4.70;;;3.07;;
2305;SDS011;1161;51.922;8.896;2022-07-17T05:18:52;14.80;;;4.10;;
2305;SDS011;1161;51.922;8.896;2022-07-17T05:21:19;7.87;;;3.37;;
2305;SDS011;1161;51.922;8.896;2022-07-17T05:23:47;6.07;;;3.30;;
2305;SDS011;1161;51.922;8.896;2022-07-17T05:26:14;4.60;;;2.57;;
2305;SDS011;1161;51.922;8.896;2022-07-17T05:28:41;9.00;;;4.00;;
2305;SDS011;1161;51.922;8.896;2022-07-17T05:31:08;9.80;;;3.33;;
2305;SDS011;1161;51.922;8.896;2022-07-17T05:33:36;4.73;;;3.90;;
2305;SDS011;1161;51.922;8.896;2022-07-17T05:36:04;3.03;;;2.83;;
2305;SDS011;1161;51.922;8.896;2022-07-17T05:38:33;4.83;;;3.60;;
2305;SDS011;1161;51.922;8.896;2022-07-17T05:41:01;16.83;;;6.47;;
2305;SDS011;1161;51.922;8.896;2022-07-17T05:43:28;12.40;;;5.20;;
2305;SDS011;1161;51.922;8.896;2022-07-17T05:45:55;14.00;;;5.50;;
2305;SDS011;1161;51.922;8.896;2022-07-17T05:48:22;5.50;;;4.40;;
2305;SDS011;1161;51.922;8.896;2022-07-17T05:50:49;8.53;;;4.23;;
2305;SDS011;1161;51.922;8.896;2022-07-17T05:53:15;10.40;;;4.23;;
2305;SDS011;1161;51.922;8.896;2022-07-17T05:55:43;9.00;;;3.10;;
2305;SDS011;1161;51.922;8.896;2022-07-17T05:58:11;3.37;;;2.47;;
2305;SDS011;1161;51.922;8.896;2022-07-17T06:00:39;2.83;;;1.90;;
2305;SDS011;1161;51.922;8.896;2022-07-17T06:03:08;17.50;;;2.00;;
2305;SDS011;1161;51.922;8.896;2022-07-17T06:05:35;6.73;;;2.53;;
2305;SDS011;1161;51.922;8.896;2022-07-17T06:08:02;2.70;;;2.33;;
2305;SDS011;1161;51.922;8.896;2022-07-17T06:10:28;9.17;;;2.60;;
2305;SDS011;1161;51.922;8.896;2022-07-17T06:12:55;6.17;;;2.50;;
2305;SDS011;1161;51.922;8.896;2022-07-17T06:15:23;3.13;;;2.70;;
2305;SDS011;1161;51.922;8.896;2022-07-17T06:17:51;2.60;;;2.20;;
2305;SDS011;1161;51.922;8.896;2022-07-17T06:20:18;7.27;;;2.57;;
2305;SDS011;1161;51.922;8.896;2022-07-17T06:22:45;6.83;;;1.97;;
2305;SDS011;1161;51.922;8.896;2022-07-17T06:25:12;7.17;;;2.23;;
2305;SDS011;1161;51.922;8.896;2022-07-17T06:27:39;6.90;;;1.87;;
2305;SDS011;1161;51.922;8.896;2022-07-17T06:30:06;6.53;;;2.23;;
2305;SDS011;1161;51.922;8.896;2022-07-17T06:32:35;4.33;;;2.00;;
2305;SDS011;1161;51.922;8.896;2022-07-17T06:35:01;5.83;;;2.27;;
2305;SDS011;1161;51.922;8.896;2022-07-17T06:37:28;3.60;;;2.03;;
2305;SDS011;1161;51.922;8.896;2022-07-17T06:39:55;2.63;;;1.80;;
2305;SDS011;1161;51.922;8.896;2022-07-17T06:42:22;4.17;;;2.00;;
2305;SDS011;1161;51.922;8.896;2022-07-17T06:44:48;2.17;;;1.93;;
2305;SDS011;1161;51.922;8.896;2022-07-17T06:47:15;4.17;;;2.10;;
2305;SDS011;1161;51.922;8.896;2022-07-17T06:49:43;4.33;;;2.37;;
2305;SDS011;1161;51.922;8.896;2022-07-17T06:52:10;9.57;;;1.70;;
2305;SDS011;1161;51.922;8.896;2022-07-17T06:54:36;3.40;;;1.93;;
2305;SDS011;1161;51.922;8.896;2022-07-17T06:57:03;3.50;;;1.90;;
2305;SDS011;1161;51.922;8.896;2022-07-17T06:59:30;13.80;;;2.53;;
2305;SDS011;1161;51.922;8.896;2022-07-17T07:01:56;17.50;;;2.17;;
2305;SDS011;1161;51.922;8.896;2022-07-17T07:04:23;4.63;;;1.90;;
2305;SDS011;1161;51.922;8.896;2022-07-17T07:06:51;16.57;;;2.93;;
2305;SDS011;1161;51.922;8.896;2022-07-17T07:09:18;7.63;;;2.53;;
2305;SDS011;1161;51.922;8.896;2022-07-17T07:11:44;7.70;;;2.00;;
2305;SDS011;1161;51.922;8.896;2022-07-17T07:14:11;6.90;;;1.87;;
2305;SDS011;1161;51.922;8.896;2022-07-17T07:16:38;4.90;;;2.40;;
2305;SDS011;1161;51.922;8.896;2022-07-17T07:19:05;4.87;;;2.00;;
2305;SDS011;1161;51.922;8.896;2022-07-17T07:21:32;2.67;;;1.53;;
2305;SDS011;1161;51.922;8.896;2022-07-17T07:24:00;12.00;;;3.57;;
2305;SDS011;1161;51.922;8.896;2022-07-17T07:26:26;4.47;;;1.93;;
2305;SDS011;1161;51.922;8.896;2022-07-17T07:28:53;10.03;;;2.37;;
2305;SDS011;1161;51.922;8.896;2022-07-17T07:31:20;3.40;;;2.20;;
2305;SDS011;1161;51.922;8.896;2022-07-17T07:33:46;6.27;;;2.07;;
2305;SDS011;1161;51.922;8.896;2022-07-17T07:36:13;6.53;;;2.70;;
2305;SDS011;1161;51.922;8.896;2022-07-17T07:38:40;4.03;;;2.43;;
2305;SDS011;1161;51.922;8.896;2022-07-17T07:41:08;4.43;;;2.00;;
2305;SDS011;1161;51.922;8.896;2022-07-17T07:43:35;12.27;;;2.93;;
2305;SDS011;1161;51.922;8.896;2022-07-17T07:46:02;7.00;;;2.67;;
2305;SDS011;1161;51.922;8.896;2022-07-17T07:48:29;9.30;;;2.13;;
2305;SDS011;1161;51.922;8.896;2022-07-17T07:50:55;3.10;;;1.90;;
2305;SDS011;1161;51.922;8.896;2022-07-17T07:53:22;2.67;;;2.10;;
2305;SDS011;1161;51.922;8.896;2022-07-17T07:55:49;3.70;;;1.80;;
2305;SDS011;1161;51.922;8.896;2022-07-17T07:58:16;6.47;;;2.63;;
2305;SDS011;1161;51.922;8.896;2022-07-17T08:00:44;6.47;;;2.47;;
2305;SDS011;1161;51.922;8.896;2022-07-17T08:03:11;8.03;;;2.53;;
2305;SDS011;1161;51.922;8.896;2022-07-17T08:05:38;3.80;;;2.27;;
2305;SDS011;1161;51.922;8.896;2022-07-17T08:08:05;3.00;;;2.80;;
2305;SDS011;1161;51.922;8.896;2022-07-17T08:10:31;19.30;;;2.47;;
2305;SDS011;1161;51.922;8.896;2022-07-17T08:12:58;1.90;;;1.70;;
2305;SDS011;1161;51.922;8.896;2022-07-17T08:15:26;4.80;;;2.20;;
2305;SDS011;1161;51.922;8.896;2022-07-17T08:17:53;5.80;;;1.73;;
2305;SDS011;1161;51.922;8.896;2022-07-17T08:20:20;5.17;;;1.70;;
2305;SDS011;1161;51.922;8.896;2022-07-17T08:22:47;3.30;;;2.07;;
2305;SDS011;1161;51.922;8.896;2022-07-17T08:25:14;8.33;;;2.03;;
2305;SDS011;1161;51.922;8.896;2022-07-17T08:27:42;7.60;;;2.23;;
2305;SDS011;1161;51.922;8.896;2022-07-17T08:30:09;4.77;;;2.10;;
2305;SDS011;1161;51.922;8.896;2022-07-17T08:32:39;5.30;;;1.50;;
2305;SDS011;1161;51.922;8.896;2022-07-17T08:35:06;12.00;;;3.00;;
2305;SDS011;1161;51.922;8.896;2022-07-17T08:37:41;10.80;;;2.10;;
2305;SDS011;1161;51.922;8.896;2022-07-17T08:40:10;2.80;;;1.83;;
2305;SDS011;1161;51.922;8.896;2022-07-17T08:42:44;5.13;;;1.90;;
2305;SDS011;1161;51.922;8.896;2022-07-17T08:45:11;5.50;;;1.73;;
2305;SDS011;1161;51.922;8.896;2022-07-17T08:47:39;5.40;;;2.37;;
2305;SDS011;1161;51.922;8.896;2022-07-17T08:50:07;3.83;;;1.60;;
2305;SDS011;1161;51.922;8.896;2022-07-17T08:52:36;12.13;;;2.83;;
2305;SDS011;1161;51.922;8.896;2022-07-17T08:55:03;5.63;;;1.90;;
2305;SDS011;1161;51.922;8.896;2022-07-17T08:57:31;4.53;;;1.87;;
2305;SDS011;1161;51.922;8.896;2022-07-17T08:59:57;10.40;;;2.23;;
2305;SDS011;1161;51.922;8.896;2022-07-17T09:02:24;1.23;;;1.03;;
2305;SDS011;1161;51.922;8.896;2022-07-17T09:04:55;4.00;;;1.67;;
2305;SDS011;1161;51.922;8.896;2022-07-17T09:07:23;5.70;;;1.70;;
2305;SDS011;1161;51.922;8.896;2022-07-17T09:09:50;5.30;;;2.40;;
2305;SDS011;1161;51.922;8.896;2022-07-17T09:12:17;5.00;;;2.10;;
2305;SDS011;1161;51.922;8.896;2022-07-17T09:14:44;6.93;;;1.50;;
2305;SDS011;1161;51.922;8.896;2022-07-17T09:17:11;3.93;;;2.03;;
2305;SDS011;1161;51.922;8.896;2022-07-17T09:19:39;6.80;;;1.60;;
2305;SDS011;1161;51.922;8.896;2022-07-17T09:22:09;4.57;;;2.17;;
2305;SDS011;1161;51.922;8.896;2022-07-17T09:24:39;2.60;;;1.47;;
2305;SDS011;1161;51.922;8.896;2022-07-17T09:27:07;7.20;;;2.00;;
2305;SDS011;1161;51.922;8.896;2022-07-17T09:29:35;2.33;;;1.73;;
2305;SDS011;1161;51.922;8.896;2022-07-17T09:32:01;2.13;;;1.70;;
2305;SDS011;1161;51.922;8.896;2022-07-17T09:34:29;6.90;;;1.70;;
2305;SDS011;1161;51.922;8.896;2022-07-17T09:36:59;5.17;;;2.20;;
2305;SDS011;1161;51.922;8.896;2022-07-17T09:39:35;5.43;;;1.63;;
2305;SDS011;1161;51.922;8.896;2022-07-17T09:42:02;7.87;;;1.93;;
2305;SDS011;1161;51.922;8.896;2022-07-17T09:44:28;2.10;;;1.47;;
2305;SDS011;1161;51.922;8.896;2022-07-17T09:46:55;4.47;;;1.23;;
2305;SDS011;1161;51.922;8.896;2022-07-17T09:49:22;2.70;;;1.17;;
2305;SDS011;1161;51.922;8.896;2022-07-17T09:51:52;8.50;;;1.93;;
2305;SDS011;1161;51.922;8.896;2022-07-17T09:54:20;5.77;;;1.43;;
2305;SDS011;1161;51.922;8.896;2022-07-17T09:56:49;7.97;;;1.43;;
2305;SDS011;1161;51.922;8.896;2022-07-17T09:59:17;3.57;;;1.30;;
2305;SDS011;1161;51.922;8.896;2022-07-17T10:01:45;2.50;;;1.70;;
2305;SDS011;1161;51.922;8.896;2022-07-17T10:04:15;4.10;;;2.10;;
2305;SDS011;1161;51.922;8.896;2022-07-17T10:06:42;2.50;;;1.57;;
2305;SDS011;1161;51.922;8.896;2022-07-17T10:09:09;1.90;;;1.37;;
2305;SDS011;1161;51.922;8.896;2022-07-17T10:11:36;4.30;;;2.30;;
2305;SDS011;1161;51.922;8.896;2022-07-17T10:14:08;1.37;;;1.27;;
2305;SDS011;1161;51.922;8.896;2022-07-17T10:16:35;1.63;;;1.20;;
2305;SDS011;1161;51.922;8.896;2022-07-17T10:19:14;4.70;;;1.30;;
2305;SDS011;1161;51.922;8.896;2022-07-17T10:21:51;4.97;;;1.40;;
2305;SDS011;1161;51.922;8.896;2022-07-17T10:24:18;2.10;;;1.23;;
2305;SDS011;1161;51.922;8.896;2022-07-17T10:26:45;6.87;;;1.70;;
2305;SDS011;1161;51.922;8.896;2022-07-17T10:29:31;1.83;;;1.40;;
2305;SDS011;1161;51.922;8.896;2022-07-17T10:32:00;3.87;;;1.97;;
2305;SDS011;1161;51.922;8.896;2022-07-17T10:34:40;4.83;;;2.03;;
2305;SDS011;1161;51.922;8.896;2022-07-17T10:37:19;5.50;;;1.47;;
2305;SDS011;1161;51.922;8.896;2022-07-17T10:39:57;5.27;;;1.20;;
2305;SDS011;1161;51.922;8.896;2022-07-17T10:42:51;4.33;;;1.23;;
2305;SDS011;1161;51.922;8.896;2022-07-17T10:45:23;2.70;;;1.10;;
2305;SDS011;1161;51.922;8.896;2022-07-17T10:47:52;1.60;;;1.50;;
2305;SDS011;1161;51.922;8.896;2022-07-17T10:50:21;2.60;;;1.50;;
2305;SDS011;1161;51.922;8.896;2022-07-17T10:52:59;2.83;;;1.40;;
2305;SDS011;1161;51.922;8.896;2022-07-17T10:55:28;0.97;;;0.97;;
2305;SDS011;1161;51.922;8.896;2022-07-17T10:57:55;3.80;;;1.50;;
2305;SDS011;1161;51.922;8.896;2022-07-17T11:00:23;3.00;;;1.60;;
2305;SDS011;1161;51.922;8.896;2022-07-17T11:02:50;1.70;;;1.50;;
2305;SDS011;1161;51.922;8.896;2022-07-17T11:05:17;1.53;;;1.43;;
2305;SDS011;1161;51.922;8.896;2022-07-17T11:07:54;3.80;;;1.20;;
2305;SDS011;1161;51.922;8.896;2022-07-17T11:10:24;4.50;;;1.37;;
2305;SDS011;1161;51.922;8.896;2022-07-17T11:12:52;2.30;;;1.17;;
2305;SDS011;1161;51.922;8.896;2022-07-17T11:15:19;1.63;;;1.03;;
2305;SDS011;1161;51.922;8.896;2022-07-17T11:17:48;1.10;;;1.10;;
2305;SDS011;1161;51.922;8.896;2022-07-17T11:20:16;4.67;;;1.40;;
2305;SDS011;1161;51.922;8.896;2022-07-17T11:22:44;1.40;;;1.30;;
2305;SDS011;1161;51.922;8.896;2022-07-17T11:25:10;9.73;;;1.30;;
2305;SDS011;1161;51.922;8.896;2022-07-17T11:27:37;2.23;;;2.07;;
2305;SDS011;1161;51.922;8.896;2022-07-17T11:30:05;1.60;;;1.17;;
2305;SDS011;1161;51.922;8.896;2022-07-17T11:32:39;3.60;;;1.20;;
2305;SDS011;1161;51.922;8.896;2022-07-17T11:35:17;2.77;;;1.20;;
2305;SDS011;1161;51.922;8.896;2022-07-17T11:37:45;3.33;;;1.30;;
2305;SDS011;1161;51.922;8.896;2022-07-17T11:40:14;3.00;;;1.30;;
2305;SDS011;1161;51.922;8.896;2022-07-17T11:42:41;1.10;;;0.90;;
2305;SDS011;1161;51.922;8.896;2022-07-17T11:45:08;3.50;;;1.77;;
2305;SDS011;1161;51.922;8.896;2022-07-17T11:47:36;2.90;;;1.60;;
2305;SDS011;1161;51.922;8.896;2022-07-17T11:50:10;3.43;;;1.47;;
2305;SDS011;1161;51.922;8.896;2022-07-17T11:52:46;1.60;;;1.50;;
2305;SDS011;1161;51.922;8.896;2022-07-17T11:55:14;9.50;;;1.50;;
2305;SDS011;1161;51.922;8.896;2022-07-17T11:57:42;3.37;;;1.70;;
2305;SDS011;1161;51.922;8.896;2022-07-17T12:00:11;2.10;;;1.33;;
2305;SDS011;1161;51.922;8.896;2022-07-17T12:02:38;4.43;;;1.97;;
2305;SDS011;1161;51.922;8.896;2022-07-17T12:05:05;1.53;;;0.80;;
2305;SDS011;1161;51.922;8.896;2022-07-17T12:07:38;4.60;;;1.30;;
2305;SDS011;1161;51.922;8.896;2022-07-17T12:10:12;4.67;;;1.70;;
2305;SDS011;1161;51.922;8.896;2022-07-17T12:12:55;5.83;;;1.80;;
2305;SDS011;1161;51.922;8.896;2022-07-17T12:15:33;2.20;;;1.30;;
2305;SDS011;1161;51.922;8.896;2022-07-17T12:18:01;1.17;;;1.17;;
2305;SDS011;1161;51.922;8.896;2022-07-17T12:20:39;3.93;;;1.63;;
2305;SDS011;1161;51.922;8.896;2022-07-17T12:23:07;4.83;;;1.33;;
2305;SDS011;1161;51.922;8.896;2022-07-17T12:25:35;4.97;;;1.20;;
2305;SDS011;1161;51.922;8.896;2022-07-17T12:28:01;2.87;;;1.23;;
2305;SDS011;1161;51.922;8.896;2022-07-17T12:30:28;3.23;;;1.60;;
2305;SDS011;1161;51.922;8.896;2022-07-17T12:32:57;3.07;;;1.53;;
2305;SDS011;1161;51.922;8.896;2022-07-17T12:35:25;9.93;;;1.63;;
2305;SDS011;1161;51.922;8.896;2022-07-17T12:37:51;3.20;;;1.60;;
2305;SDS011;1161;51.922;8.896;2022-07-17T12:40:18;4.87;;;1.30;;
2305;SDS011;1161;51.922;8.896;2022-07-17T12:42:47;3.37;;;1.47;;
2305;SDS011;1161;51.922;8.896;2022-07-17T12:45:13;3.37;;;1.50;;
2305;SDS011;1161;51.922;8.896;2022-07-17T12:47:40;1.13;;;1.13;;
2305;SDS011;1161;51.922;8.896;2022-07-17T12:50:07;3.83;;;1.10;;
2305;SDS011;1161;51.922;8.896;2022-07-17T12:52:34;2.00;;;1.03;;
2305;SDS011;1161;51.922;8.896;2022-07-17T12:55:01;2.87;;;1.70;;
2305;SDS011;1161;51.922;8.896;2022-07-17T12:57:28;1.50;;;1.40;;
2305;SDS011;1161;51.922;8.896;2022-07-17T12:59:56;7.83;;;1.90;;
2305;SDS011;1161;51.922;8.896;2022-07-17T13:02:22;7.13;;;1.30;;
2305;SDS011;1161;51.922;8.896;2022-07-17T13:04:50;1.10;;;1.00;;
2305;SDS011;1161;51.922;8.896;2022-07-17T13:07:16;2.20;;;1.57;;
2305;SDS011;1161;51.922;8.896;2022-07-17T13:09:43;3.00;;;1.40;;
2305;SDS011;1161;51.922;8.896;2022-07-17T13:12:10;1.40;;;1.30;;
2305;SDS011;1161;51.922;8.896;2022-07-17T13:14:37;1.10;;;1.00;;
2305;SDS011;1161;51.922;8.896;2022-07-17T13:17:05;1.43;;;1.33;;
2305;SDS011;1161;51.922;8.896;2022-07-17T13:19:31;3.23;;;1.43;;
2305;SDS011;1161;51.922;8.896;2022-07-17T13:22:00;5.10;;;1.43;;
2305;SDS011;1161;51.922;8.896;2022-07-17T13:24:26;1.33;;;1.23;;
2305;SDS011;1161;51.922;8.896;2022-07-17T13:26:53;3.20;;;1.30;;
2305;SDS011;1161;51.922;8.896;2022-07-17T13:29:20;1.47;;;1.37;;
2305;SDS011;1161;51.922;8.896;2022-07-17T13:31:47;1.50;;;1.03;;
2305;SDS011;1161;51.922;8.896;2022-07-17T13:34:15;2.83;;;1.73;;
2305;SDS011;1161;51.922;8.896;2022-07-17T13:36:41;1.10;;;1.10;;
2305;SDS011;1161;51.922;8.896;2022-07-17T13:39:08;1.70;;;1.33;;
2305;SDS011;1161;51.922;8.896;2022-07-17T13:41:35;2.70;;;1.10;;
2305;SDS011;1161;51.922;8.896;2022-07-17T13:44:03;2.63;;;1.33;;
2305;SDS011;1161;51.922;8.896;2022-07-17T13:46:34;1.30;;;1.10;;
2305;SDS011;1161;51.922;8.896;2022-07-17T13:49:01;6.07;;;1.53;;
2305;SDS011;1161;51.922;8.896;2022-07-17T13:51:30;1.00;;;1.00;;
2305;SDS011;1161;51.922;8.896;2022-07-17T13:53:57;2.17;;;0.93;;
2305;SDS011;1161;51.922;8.896;2022-07-17T13:56:24;4.40;;;1.37;;
2305;SDS011;1161;51.922;8.896;2022-07-17T13:58:51;2.00;;;1.13;;
2305;SDS011;1161;51.922;8.896;2022-07-17T14:01:18;4.87;;;1.30;;
2305;SDS011;1161;51.922;8.896;2022-07-17T14:03:45;0.83;;;0.80;;
2305;SDS011;1161;51.922;8.896;2022-07-17T14:06:12;1.33;;;1.00;;
2305;SDS011;1161;51.922;8.896;2022-07-17T14:08:40;1.03;;;0.83;;
2305;SDS011;1161;51.922;8.896;2022-07-17T14:11:09;1.63;;;0.77;;
2305;SDS011;1161;51.922;8.896;2022-07-17T14:13:36;0.90;;;0.83;;
2305;SDS011;1161;51.922;8.896;2022-07-17T14:16:02;2.63;;;1.10;;
2305;SDS011;1161;51.922;8.896;2022-07-17T14:18:30;0.80;;;0.80;;
2305;SDS011;1161;51.922;8.896;2022-07-17T14:20:56;4.47;;;1.53;;
2305;SDS011;1161;51.922;8.896;2022-07-17T14:23:23;1.83;;;1.10;;
2305;SDS011;1161;51.922;8.896;2022-07-17T14:25:52;0.60;;;0.60;;
2305;SDS011;1161;51.922;8.896;2022-07-17T14:28:18;0.60;;;0.60;;
2305;SDS011;1161;51.922;8.896;2022-07-17T14:30:45;2.23;;;1.33;;
2305;SDS011;1161;51.922;8.896;2022-07-17T14:33:12;1.87;;;1.37;;
2305;SDS011;1161;51.922;8.896;2022-07-17T14:35:38;2.17;;;1.17;;
2305;SDS011;1161;51.922;8.896;2022-07-17T14:38:05;1.10;;;1.10;;
2305;SDS011;1161;51.922;8.896;2022-07-17T14:40:32;2.30;;;1.33;;
2305;SDS011;1161;51.922;8.896;2022-07-17T14:43:00;1.90;;;0.80;;
2305;SDS011;1161;51.922;8.896;2022-07-17T14:45:27;1.63;;;1.20;;
2305;SDS011;1161;51.922;8.896;2022-07-17T14:47:53;1.17;;;1.10;;
2305;SDS011;1161;51.922;8.896;2022-07-17T14:50:20;4.83;;;1.47;;
2305;SDS011;1161;51.922;8.896;2022-07-17T14:52:47;2.77;;;1.23;;
2305;SDS011;1161;51.922;8.896;2022-07-17T14:55:14;1.17;;;1.10;;
2305;SDS011;1161;51.922;8.896;2022-07-17T14:57:40;1.83;;;1.50;;
2305;SDS011;1161;51.922;8.896;2022-07-17T15:00:09;5.50;;;1.37;;
2305;SDS011;1161;51.922;8.896;2022-07-17T15:02:37;1.67;;;1.10;;
2305;SDS011;1161;51.922;8.896;2022-07-17T15:05:04;1.20;;;1.10;;
2305;SDS011;1161;51.922;8.896;2022-07-17T15:07:31;5.13;;;1.63;;
2305;SDS011;1161;51.922;8.896;2022-07-17T15:09:58;3.37;;;0.97;;
2305;SDS011;1161;51.922;8.896;2022-07-17T15:12:24;4.17;;;1.43;;
2305;SDS011;1161;51.922;8.896;2022-07-17T15:14:51;1.23;;;1.13;;
2305;SDS011;1161;51.922;8.896;2022-07-17T15:17:19;1.50;;;1.30;;
2305;SDS011;1161;51.922;8.896;2022-07-17T15:19:46;4.20;;;1.30;;